Time,TemperatureF,DewpointF,PressureIn,WindDirection,WindDirectionDegrees,WindSpeedMPH,WindSpeedGustMPH,Humidity,HourlyPrecipIn,Conditions,Clouds,dailyrainin,SoftwareType,DateUTC
2013-03-13 00:30:00,41.8,38.8,29.70,West,280,1.0,2.0,89,0.00,,CLR,0.58,VWS V14.01,2013-03-13 04:30:00,
2013-03-13 00:35:00,41.6,38.3,29.70,North,0,2.0,5.0,88,0.00,,CLR,0.58,VWS V14.01,2013-03-13 04:35:00,
2013-03-13 00:41:00,41.5,38.2,29.70,North,0,2.0,2.0,88,0.00,,CLR,0.58,VWS V14.01,2013-03-13 04:41:00,
2013-03-13 00:46:00,41.5,37.9,29.69,North,349,0.0,0.0,87,0.00,,CLR,0.58,VWS V14.01,2013-03-13 04:46:00,
2013-03-13 00:51:00,41.3,37.7,29.69,West,265,0.0,0.0,87,0.00,,CLR,0.58,VWS V14.01,2013-03-13 04:51:00,
2013-03-13 00:56:00,41.2,37.6,29.69,West,265,0.0,0.0,87,0.00,,CLR,0.58,VWS V14.01,2013-03-13 04:56:00,
2013-03-13 01:01:00,41.2,37.3,29.71,West,265,0.0,0.0,86,0.00,,CLR,0.00,VWS V14.01,2013-03-13 05:01:00,
2013-03-13 01:06:00,41.1,37.2,29.71,West,265,0.0,0.0,86,0.00,,CLR,0.00,VWS V14.01,2013-03-13 05:06:00,
2013-03-13 01:11:00,41.1,37.2,29.71,West,265,0.0,0.0,86,0.00,,CLR,0.00,VWS V14.01,2013-03-13 05:11:00,
2013-03-13 01:16:00,40.9,36.8,29.71,West,274,0.0,0.0,85,0.00,,CLR,0.00,VWS V14.01,2013-03-13 05:16:00,
2013-03-13 01:22:00,40.8,36.7,29.71,West,274,0.0,0.0,85,0.00,,CLR,0.00,VWS V14.01,2013-03-13 05:22:00,
2013-03-13 01:27:00,40.5,36.3,29.71,West,274,0.0,0.0,85,0.00,,CLR,0.00,VWS V14.01,2013-03-13 05:27:00,
2013-03-13 01:32:00,40.2,36.1,29.70,West,274,0.0,0.0,85,0.00,,CLR,0.00,VWS V14.01,2013-03-13 05:32:00,
2013-03-13 01:37:00,39.9,35.8,29.70,West,274,0.0,0.0,85,0.00,,CLR,0.00,VWS V14.01,2013-03-13 05:37:00,
2013-03-13 01:42:00,39.6,35.5,29.70,NW,311,0.0,0.0,85,0.00,,CLR,0.00,VWS V14.01,2013-03-13 05:42:00,
2013-03-13 01:48:00,39.5,35.4,29.70,NW,311,0.0,0.0,85,0.00,,CLR,0.00,VWS V14.01,2013-03-13 05:48:00,
2013-03-13 01:53:00,39.2,35.1,29.70,WNW,302,0.0,1.0,85,0.00,,CLR,0.00,VWS V14.01,2013-03-13 05:53:00,
2013-03-13 01:58:00,38.9,34.8,29.70,NW,304,0.0,0.0,85,0.00,,CLR,0.00,VWS V14.01,2013-03-13 05:58:00,
2013-03-13 02:03:00,38.8,34.7,29.71,NW,304,0.0,0.0,85,0.00,,CLR,0.00,VWS V14.01,2013-03-13 06:03:00,
2013-03-13 02:09:00,38.6,34.5,29.71,NW,304,0.0,0.0,85,0.00,,CLR,0.00,VWS V14.01,2013-03-13 06:09:00,
2013-03-13 02:14:00,38.3,34.2,29.71,NW,304,0.0,0.0,85,0.00,,CLR,0.00,VWS V14.01,2013-03-13 06:14:00,
2013-03-13 02:19:00,38.0,33.9,29.72,NW,304,0.0,0.0,85,0.00,,CLR,0.00,VWS V14.01,2013-03-13 06:19:00,
2013-03-13 02:24:00,37.8,34.0,29.72,NW,304,0.0,0.0,86,0.00,,CLR,0.00,VWS V14.01,2013-03-13 06:24:00,
2013-03-13 02:29:00,37.5,33.7,29.72,WNW,302,0.0,0.0,86,0.00,,CLR,0.00,VWS V14.01,2013-03-13 06:29:00,
2013-03-13 02:35:00,37.2,33.4,29.71,WNW,302,1.0,2.0,86,0.00,,CLR,0.00,VWS V14.01,2013-03-13 06:35:00,
2013-03-13 02:40:00,36.9,33.1,29.71,WNW,302,0.0,0.0,86,0.00,,CLR,0.00,VWS V14.01,2013-03-13 06:40:00,
2013-03-13 02:45:00,36.8,33.3,29.71,WNW,302,0.0,0.0,87,0.00,,CLR,0.00,VWS V14.01,2013-03-13 06:45:00,
2013-03-13 02:50:00,36.5,33.0,29.71,WNW,302,0.0,0.0,87,0.00,,CLR,0.00,VWS V14.01,2013-03-13 06:50:00,
2013-03-13 02:56:00,36.3,32.8,29.71,WNW,302,0.0,0.0,87,0.00,,CLR,0.00,VWS V14.01,2013-03-13 06:56:00,
2013-03-13 03:01:00,36.2,32.7,29.72,WNW,302,0.0,0.0,87,0.00,,CLR,0.00,VWS V14.01,2013-03-13 07:01:00,
2013-03-13 03:06:00,36.0,32.5,29.72,WNW,302,0.0,0.0,87,0.00,,CLR,0.00,VWS V14.01,2013-03-13 07:06:00,
2013-03-13 03:11:00,35.9,32.4,29.72,WNW,302,0.0,0.0,87,0.00,,CLR,0.00,VWS V14.01,2013-03-13 07:11:00,
2013-03-13 03:16:00,35.8,32.3,29.72,WNW,302,0.0,0.0,87,0.00,,CLR,0.00,VWS V14.01,2013-03-13 07:16:00,
2013-03-13 03:21:00,35.6,32.1,29.72,West,260,0.0,0.0,87,0.00,,CLR,0.00,VWS V14.01,2013-03-13 07:21:00,
2013-03-13 03:27:00,35.5,32.0,29.72,West,260,0.0,0.0,87,0.00,,CLR,0.00,VWS V14.01,2013-03-13 07:27:00,
2013-03-13 03:32:00,35.2,32.0,29.71,WNW,284,0.0,3.0,88,0.00,,CLR,0.00,VWS V14.01,2013-03-13 07:32:00,
2013-03-13 03:37:00,35.2,32.0,29.71,WNW,292,1.0,2.0,88,0.00,,CLR,0.00,VWS V14.01,2013-03-13 07:37:00,
2013-03-13 03:42:00,35.0,31.8,29.71,WNW,288,1.0,5.0,88,0.00,,CLR,0.00,VWS V14.01,2013-03-13 07:42:00,
2013-03-13 03:47:00,35.0,31.8,29.71,NNW,336,0.0,1.0,88,0.00,,CLR,0.00,VWS V14.01,2013-03-13 07:47:00,
2013-03-13 03:53:00,34.9,31.7,29.71,NNE,30,3.0,3.0,88,0.00,,CLR,0.00,VWS V14.01,2013-03-13 07:53:00,
2013-03-13 03:58:00,34.9,31.7,29.71,WSW,241,0.0,4.0,88,0.00,,CLR,0.00,VWS V14.01,2013-03-13 07:58:00,
2013-03-13 04:03:00,34.9,31.4,29.71,WNW,295,5.0,6.0,87,0.00,,CLR,0.00,VWS V14.01,2013-03-13 08:03:00,
2013-03-13 04:08:00,34.9,31.4,29.71,NW,311,0.0,2.0,87,0.00,,CLR,0.00,VWS V14.01,2013-03-13 08:08:00,
2013-03-13 04:13:00,35.0,31.5,29.71,WNW,291,2.0,3.0,87,0.00,,CLR,0.00,VWS V14.01,2013-03-13 08:13:00,
2013-03-13 04:19:00,35.0,31.2,29.72,NW,305,0.0,3.0,86,0.00,,CLR,0.00,VWS V14.01,2013-03-13 08:19:00,
2013-03-13 04:24:00,35.0,31.0,29.72,NW,305,0.0,0.0,85,0.00,,CLR,0.00,VWS V14.01,2013-03-13 08:24:00,
2013-03-13 04:29:00,35.0,31.0,29.72,NW,305,0.0,0.0,85,0.00,,CLR,0.00,VWS V14.01,2013-03-13 08:29:00,
2013-03-13 04:34:00,35.0,31.0,29.71,NW,305,0.0,0.0,85,0.00,,CLR,0.00,VWS V14.01,2013-03-13 08:34:00,
2013-03-13 04:39:00,34.9,30.6,29.71,NW,305,0.0,1.0,84,0.00,,CLR,0.00,VWS V14.01,2013-03-13 08:39:00,
2013-03-13 04:44:00,34.9,30.6,29.71,NW,305,0.0,0.0,84,0.00,,CLR,0.00,VWS V14.01,2013-03-13 08:44:00,
2013-03-13 04:50:00,34.7,30.4,29.72,NW,305,0.0,0.0,84,0.00,,CLR,0.00,VWS V14.01,2013-03-13 08:50:00,
2013-03-13 04:55:00,34.6,30.3,29.72,NW,305,0.0,0.0,84,0.00,,CLR,0.00,VWS V14.01,2013-03-13 08:55:00,
2013-03-13 05:00:00,34.4,30.1,29.72,NW,305,0.0,0.0,84,0.00,,CLR,0.00,VWS V14.01,2013-03-13 09:00:00,
2013-03-13 05:05:00,34.1,29.8,29.72,NW,305,0.0,0.0,84,0.00,,CLR,0.00,VWS V14.01,2013-03-13 09:05:00,
2013-03-13 05:10:00,33.8,29.5,29.72,NW,305,1.0,1.0,84,0.00,,CLR,0.00,VWS V14.01,2013-03-13 09:10:00,
2013-03-13 05:15:00,33.7,29.4,29.72,NNW,333,2.0,5.0,84,0.00,,CLR,0.00,VWS V14.01,2013-03-13 09:15:00,
2013-03-13 05:20:00,33.5,29.2,29.72,NNW,332,0.0,0.0,84,0.00,,CLR,0.00,VWS V14.01,2013-03-13 09:20:00,
2013-03-13 05:25:00,33.4,29.1,29.72,NNW,332,0.0,1.0,84,0.00,,CLR,0.00,VWS V14.01,2013-03-13 09:25:00,
2013-03-13 05:31:00,33.2,28.9,29.73,NNW,332,0.0,0.0,84,0.00,,CLR,0.00,VWS V14.01,2013-03-13 09:31:00,
2013-03-13 05:36:00,33.1,28.8,29.73,NNW,332,0.0,0.0,84,0.00,,CLR,0.00,VWS V14.01,2013-03-13 09:36:00,
2013-03-13 05:41:00,33.1,29.1,29.73,NNW,332,0.0,0.0,85,0.00,,CLR,0.00,VWS V14.01,2013-03-13 09:41:00,
2013-03-13 05:46:00,32.9,28.9,29.73,NNW,332,1.0,1.0,85,0.00,,CLR,0.00,VWS V14.01,2013-03-13 09:46:00,
2013-03-13 05:51:00,32.9,28.9,29.73,West,278,0.0,3.0,85,0.00,,CLR,0.00,VWS V14.01,2013-03-13 09:51:00,
2013-03-13 05:56:00,32.9,28.9,29.73,West,278,0.0,2.0,85,0.00,,CLR,0.00,VWS V14.01,2013-03-13 09:56:00,
2013-03-13 06:02:00,32.8,28.8,29.73,WSW,247,0.0,2.0,85,0.00,,CLR,0.00,VWS V14.01,2013-03-13 10:02:00,
2013-03-13 06:07:00,32.8,28.8,29.73,West,270,1.0,2.0,85,0.00,,CLR,0.00,VWS V14.01,2013-03-13 10:07:00,
2013-03-13 06:12:00,32.8,28.8,29.73,West,270,0.0,0.0,85,0.00,,CLR,0.00,VWS V14.01,2013-03-13 10:12:00,
2013-03-13 06:17:00,32.7,28.7,29.73,West,270,0.0,0.0,85,0.00,,CLR,0.00,VWS V14.01,2013-03-13 10:17:00,
2013-03-13 06:22:00,32.5,28.5,29.73,West,270,0.0,0.0,85,0.00,,CLR,0.00,VWS V14.01,2013-03-13 10:22:00,
2013-03-13 06:27:00,32.5,28.5,29.73,West,270,0.0,0.0,85,0.00,,CLR,0.00,VWS V14.01,2013-03-13 10:27:00,
2013-03-13 06:33:00,32.4,28.4,29.73,West,270,0.0,0.0,85,0.00,,CLR,0.00,VWS V14.01,2013-03-13 10:33:00,
2013-03-13 06:38:00,32.4,28.4,29.73,West,270,0.0,0.0,85,0.00,,CLR,0.00,VWS V14.01,2013-03-13 10:38:00,
2013-03-13 06:43:00,32.2,28.5,29.73,West,270,0.0,0.0,86,0.00,,CLR,0.00,VWS V14.01,2013-03-13 10:43:00,
2013-03-13 06:48:00,32.1,28.4,29.73,West,270,0.0,0.0,86,0.00,,CLR,0.00,VWS V14.01,2013-03-13 10:48:00,
2013-03-13 06:53:00,32.1,28.4,29.73,West,270,0.0,1.0,86,0.00,,CLR,0.00,VWS V14.01,2013-03-13 10:53:00,
2013-03-13 06:59:00,31.9,28.2,29.73,West,270,0.0,0.0,86,0.00,,CLR,0.00,VWS V14.01,2013-03-13 10:59:00,
2013-03-13 07:04:00,31.8,28.1,29.73,West,270,0.0,0.0,86,0.00,,CLR,0.00,VWS V14.01,2013-03-13 11:04:00,
2013-03-13 07:09:00,31.8,28.1,29.73,West,270,0.0,0.0,86,0.00,,CLR,0.00,VWS V14.01,2013-03-13 11:09:00,
2013-03-13 07:15:00,31.6,27.9,29.73,West,270,0.0,0.0,86,0.00,,CLR,0.00,VWS V14.01,2013-03-13 11:15:00,
2013-03-13 07:20:00,31.5,27.8,29.73,West,270,0.0,0.0,86,0.00,,CLR,0.00,VWS V14.01,2013-03-13 11:20:00,
2013-03-13 07:25:00,31.5,28.1,29.73,West,270,1.0,1.0,87,0.00,,CLR,0.00,VWS V14.01,2013-03-13 11:25:00,
2013-03-13 07:30:00,31.5,28.1,29.72,West,270,0.0,0.0,87,0.00,,CLR,0.00,VWS V14.01,2013-03-13 11:30:00,
2013-03-13 07:35:00,31.5,28.1,29.72,West,268,0.0,0.0,87,0.00,,CLR,0.00,VWS V14.01,2013-03-13 11:35:00,
2013-03-13 07:40:00,31.5,28.1,29.72,West,270,0.0,0.0,87,0.00,,CLR,0.00,VWS V14.01,2013-03-13 11:40:00,
2013-03-13 07:45:00,31.5,28.1,29.72,West,270,0.0,0.0,87,0.00,,CLR,0.00,VWS V14.01,2013-03-13 11:45:00,
2013-03-13 07:51:00,31.6,28.5,29.72,West,270,0.0,0.0,88,0.00,,CLR,0.00,VWS V14.01,2013-03-13 11:51:00,
2013-03-13 07:56:00,31.9,28.8,29.72,West,270,0.0,0.0,88,0.00,,CLR,0.00,VWS V14.01,2013-03-13 11:56:00,
2013-03-13 08:01:00,32.2,29.0,29.72,West,270,0.0,0.0,88,0.00,,CLR,0.00,VWS V14.01,2013-03-13 12:01:00,
2013-03-13 08:06:00,32.7,29.5,29.72,WNW,284,3.0,3.0,88,0.00,,CLR,0.00,VWS V14.01,2013-03-13 12:06:00,
2013-03-13 08:11:00,33.1,29.9,29.72,West,271,3.0,3.0,88,0.00,,CLR,0.00,VWS V14.01,2013-03-13 12:11:00,
2013-03-13 08:17:00,33.5,30.3,29.72,WSW,243,1.0,2.0,88,0.00,,CLR,0.00,VWS V14.01,2013-03-13 12:17:00,
2013-03-13 08:22:00,34.0,30.8,29.72,NNW,342,0.0,0.0,88,0.00,,CLR,0.00,VWS V14.01,2013-03-13 12:22:00,
2013-03-13 08:27:00,34.4,30.9,29.72,NNW,333,0.0,7.0,87,0.00,,CLR,0.00,VWS V14.01,2013-03-13 12:27:00,
2013-03-13 08:32:00,35.0,31.0,29.72,West,268,7.0,7.0,85,0.00,,CLR,0.00,VWS V14.01,2013-03-13 12:32:00,
2013-03-13 08:37:00,35.6,31.2,29.72,NW,319,1.0,7.0,84,0.00,,CLR,0.00,VWS V14.01,2013-03-13 12:37:00,
2013-03-13 08:42:00,36.2,31.2,29.72,WNW,291,0.0,5.0,82,0.00,,CLR,0.00,VWS V14.01,2013-03-13 12:42:00,
2013-03-13 08:47:00,36.6,31.0,29.71,WSW,248,0.0,8.0,80,0.00,,CLR,0.00,VWS V14.01,2013-03-13 12:47:00,
2013-03-13 08:53:00,37.2,31.0,29.71,NNE,13,0.0,3.0,78,0.00,,CLR,0.00,VWS V14.01,2013-03-13 12:53:00,
2013-03-13 08:58:00,37.6,30.7,29.71,WSW,258,1.0,5.0,76,0.00,,CLR,0.00,VWS V14.01,2013-03-13 12:58:00,
2013-03-13 09:03:00,38.2,31.0,29.71,North,349,0.0,3.0,75,0.00,,CLR,0.00,VWS V14.01,2013-03-13 13:03:00,
2013-03-13 09:08:00,38.3,30.4,29.71,SSW,213,2.0,3.0,73,0.00,,CLR,0.00,VWS V14.01,2013-03-13 13:08:00,
2013-03-13 09:13:00,38.5,30.3,29.71,WSW,244,0.0,2.0,72,0.00,,CLR,0.00,VWS V14.01,2013-03-13 13:13:00,
2013-03-13 09:19:00,38.6,30.0,29.72,West,264,0.0,2.0,71,0.00,,CLR,0.00,VWS V14.01,2013-03-13 13:19:00,
2013-03-13 09:24:00,38.8,29.9,29.72,WSW,251,6.0,9.0,70,0.00,,CLR,0.00,VWS V14.01,2013-03-13 13:24:00,
2013-03-13 09:29:00,38.9,29.6,29.72,West,280,3.0,3.0,69,0.00,,CLR,0.00,VWS V14.01,2013-03-13 13:29:00,
2013-03-13 09:34:00,39.2,29.9,29.72,WNW,285,0.0,1.0,69,0.00,,CLR,0.00,VWS V14.01,2013-03-13 13:34:00,
2013-03-13 09:39:00,39.5,29.8,29.72,SW,220,0.0,0.0,68,0.00,,CLR,0.00,VWS V14.01,2013-03-13 13:39:00,
2013-03-13 09:45:00,39.8,29.8,29.72,WNW,298,0.0,4.0,67,0.00,,CLR,0.00,VWS V14.01,2013-03-13 13:45:00,
2013-03-13 09:50:00,40.2,30.1,29.72,WSW,247,1.0,1.0,67,0.00,,CLR,0.00,VWS V14.01,2013-03-13 13:50:00,
2013-03-13 09:55:00,40.6,30.5,29.72,NE,44,8.0,8.0,67,0.00,,CLR,0.00,VWS V14.01,2013-03-13 13:55:00,
2013-03-13 10:01:00,41.1,30.6,29.72,SSW,210,1.0,8.0,66,0.00,,CLR,0.00,VWS V14.01,2013-03-13 14:01:00,
2013-03-13 10:06:00,41.6,31.1,29.72,WSW,253,3.0,3.0,66,0.00,,CLR,0.00,VWS V14.01,2013-03-13 14:06:00,
2013-03-13 10:11:00,42.2,30.1,29.72,North,356,0.0,1.0,62,0.00,,CLR,0.00,VWS V14.01,2013-03-13 14:11:00,
2013-03-13 10:16:00,42.6,30.5,29.72,WNW,295,5.0,5.0,62,0.00,,CLR,0.00,VWS V14.01,2013-03-13 14:16:00,
2013-03-13 10:21:00,42.9,30.4,29.72,WNW,289,0.0,2.0,61,0.00,,CLR,0.00,VWS V14.01,2013-03-13 14:21:00,
2013-03-13 10:26:00,43.3,30.8,29.72,North,0,1.0,2.0,61,0.00,,CLR,0.00,VWS V14.01,2013-03-13 14:26:00,
2013-03-13 10:31:00,43.5,30.5,29.72,SW,223,4.0,8.0,60,0.00,,CLR,0.00,VWS V14.01,2013-03-13 14:31:00,
2013-03-13 10:36:00,43.5,30.1,29.72,West,278,0.0,8.0,59,0.00,,CLR,0.00,VWS V14.01,2013-03-13 14:36:00,
2013-03-13 10:42:00,43.1,28.9,29.72,SSE,151,3.0,9.0,57,0.00,,CLR,0.00,VWS V14.01,2013-03-13 14:42:00,
2013-03-13 10:47:00,43.1,28.5,29.72,WNW,284,13.0,13.0,56,0.00,,CLR,0.00,VWS V14.01,2013-03-13 14:47:00,
2013-03-13 10:52:00,43.3,29.1,29.72,SSW,212,3.0,5.0,57,0.00,,CLR,0.00,VWS V14.01,2013-03-13 14:52:00,
2013-03-13 10:57:00,43.3,29.1,29.72,WSW,247,2.0,5.0,57,0.00,,CLR,0.00,VWS V14.01,2013-03-13 14:57:00,
2013-03-13 11:02:00,43.8,30.0,29.71,NW,323,0.0,7.0,58,0.00,,CLR,0.00,VWS V14.01,2013-03-13 15:02:00,
2013-03-13 11:08:00,43.6,29.0,29.71,WNW,289,7.0,7.0,56,0.00,,FEW043,0.00,VWS V14.01,2013-03-13 15:08:00,
2013-03-13 11:13:00,43.5,29.3,29.71,SSW,196,0.0,3.0,57,0.00,,FEW043,0.00,VWS V14.01,2013-03-13 15:13:00,
2013-03-13 11:18:00,43.6,29.8,29.72,SSW,213,1.0,2.0,58,0.00,,FEW043,0.00,VWS V14.01,2013-03-13 15:18:00,
2013-03-13 11:23:00,43.5,28.9,29.72,NW,305,7.0,12.0,56,0.00,,FEW043,0.00,VWS V14.01,2013-03-13 15:23:00,
2013-03-13 11:28:00,43.5,29.3,29.72,West,267,0.0,3.0,57,0.00,,FEW043,0.00,VWS V14.01,2013-03-13 15:28:00,
2013-03-13 11:34:00,43.9,29.2,29.72,WNW,302,7.0,7.0,56,0.00,,FEW043,0.00,VWS V14.01,2013-03-13 15:34:00,
2013-03-13 11:39:00,43.9,28.4,29.72,WNW,301,0.0,3.0,54,0.00,,FEW043,0.00,VWS V14.01,2013-03-13 15:39:00,
2013-03-13 11:44:00,44.1,28.5,29.72,ENE,61,10.0,10.0,54,0.00,,FEW043,0.00,VWS V14.01,2013-03-13 15:44:00,
2013-03-13 11:49:00,44.8,28.3,29.71,WSW,239,1.0,7.0,52,0.00,,FEW043,0.00,VWS V14.01,2013-03-13 15:49:00,
2013-03-13 11:54:00,44.9,28.4,29.71,SSE,150,0.0,5.0,52,0.00,,FEW043,0.00,VWS V14.01,2013-03-13 15:54:00,
2013-03-13 11:59:00,45.5,27.5,29.71,West,267,6.0,13.0,49,0.00,,FEW043,0.00,VWS V14.01,2013-03-13 15:59:00,
2013-03-13 12:04:00,45.1,26.6,29.71,NW,306,2.0,11.0,48,0.00,,FEW043,0.00,VWS V14.01,2013-03-13 16:04:00,
2013-03-13 12:10:00,44.8,26.3,29.71,North,0,1.0,6.0,48,0.00,,CLR,0.00,VWS V14.01,2013-03-13 16:10:00,
2013-03-13 12:15:00,44.5,26.5,29.70,SW,224,3.0,3.0,49,0.00,,CLR,0.00,VWS V14.01,2013-03-13 16:15:00,
2013-03-13 12:20:00,44.3,26.4,29.70,WSW,240,3.0,7.0,49,0.00,,CLR,0.00,VWS V14.01,2013-03-13 16:20:00,
2013-03-13 12:25:00,45.7,29.1,29.70,NNW,333,2.0,8.0,52,0.00,,CLR,0.00,VWS V14.01,2013-03-13 16:25:00,
2013-03-13 12:30:00,45.5,27.5,29.70,SSW,206,1.0,6.0,49,0.00,,CLR,0.00,VWS V14.01,2013-03-13 16:30:00,
2013-03-13 12:35:00,45.4,26.9,29.70,SSW,209,6.0,11.0,48,0.00,,CLR,0.00,VWS V14.01,2013-03-13 16:35:00,
2013-03-13 12:41:00,45.7,25.6,29.70,South,185,0.0,1.0,45,0.00,,CLR,0.00,VWS V14.01,2013-03-13 16:41:00,
2013-03-13 12:46:00,46.2,26.6,29.69,WNW,288,3.0,5.0,46,0.00,,CLR,0.00,VWS V14.01,2013-03-13 16:46:00,
2013-03-13 12:51:00,46.1,25.4,29.69,SSE,160,1.0,10.0,44,0.00,,CLR,0.00,VWS V14.01,2013-03-13 16:51:00,
2013-03-13 12:56:00,46.1,24.9,29.69,NW,312,0.0,5.0,43,0.00,,SCT050,0.00,VWS V14.01,2013-03-13 16:56:00,
2013-03-13 13:02:00,46.5,24.7,29.69,South,174,0.0,11.0,42,0.00,,SCT050,0.00,VWS V14.01,2013-03-13 17:02:00,
2013-03-13 13:07:00,46.4,23.4,29.69,SE,145,6.0,10.0,40,0.00,,SCT050,0.00,VWS V14.01,2013-03-13 17:07:00,
2013-03-13 13:12:00,46.8,25.5,29.69,West,265,5.0,10.0,43,0.00,,SCT050,0.00,VWS V14.01,2013-03-13 17:12:00,
2013-03-13 13:17:00,46.7,24.3,29.69,WNW,287,6.0,6.0,41,0.00,,SCT050,0.00,VWS V14.01,2013-03-13 17:17:00,
2013-03-13 13:23:00,47.3,23.6,29.69,West,267,4.0,5.0,39,0.00,,SCT050,0.00,VWS V14.01,2013-03-13 17:23:00,
2013-03-13 13:28:00,47.3,26.0,29.69,North,353,6.0,7.0,43,0.00,,SCT050,0.00,VWS V14.01,2013-03-13 17:28:00,
2013-03-13 13:33:00,46.8,22.5,29.68,NNW,336,2.0,13.0,38,0.00,,SCT050,0.00,VWS V14.01,2013-03-13 17:33:00,
2013-03-13 13:38:00,47.4,24.3,29.68,NNW,340,2.0,8.0,40,0.00,,SCT050,0.00,VWS V14.01,2013-03-13 17:38:00,
2013-03-13 13:44:00,47.0,23.3,29.68,NNW,336,1.0,10.0,39,0.00,,SCT050,0.00,VWS V14.01,2013-03-13 17:44:00,
2013-03-13 13:49:00,47.1,23.4,29.68,NNW,328,10.0,10.0,39,0.00,,SCT050,0.00,VWS V14.01,2013-03-13 17:49:00,
2013-03-13 13:54:00,47.3,24.8,29.68,WSW,254,0.0,5.0,41,0.00,,SCT050,0.00,VWS V14.01,2013-03-13 17:54:00,
2013-03-13 13:59:00,47.1,22.8,29.68,SW,220,0.0,10.0,38,0.00,,SCT050,0.00,VWS V14.01,2013-03-13 17:59:00,
2013-03-13 14:05:00,47.4,23.7,29.67,NNW,339,2.0,11.0,39,0.00,,SCT050,0.00,VWS V14.01,2013-03-13 18:05:00,
2013-03-13 14:10:00,47.6,23.9,29.67,West,271,4.0,8.0,39,0.00,,SCT050,0.00,VWS V14.01,2013-03-13 18:10:00,
2013-03-13 14:15:00,47.6,24.5,29.67,West,281,2.0,10.0,40,0.00,,SCT050,0.00,VWS V14.01,2013-03-13 18:15:00,
2013-03-13 14:20:00,48.2,26.8,29.67,South,174,6.0,6.0,43,0.00,,SCT050,0.00,VWS V14.01,2013-03-13 18:20:00,
2013-03-13 14:25:00,48.2,23.2,29.67,WNW,289,5.0,11.0,37,0.00,,SCT050,0.00,VWS V14.01,2013-03-13 18:25:00,
2013-03-13 14:31:00,48.0,24.9,29.67,West,265,3.0,8.0,40,0.00,,SCT050,0.00,VWS V14.01,2013-03-13 18:31:00,
2013-03-13 14:36:00,47.4,21.8,29.67,WNW,287,10.0,10.0,36,0.00,,SCT050,0.00,VWS V14.01,2013-03-13 18:36:00,
2013-03-13 14:41:00,47.3,20.4,29.67,SW,230,3.0,6.0,34,0.00,,SCT050,0.00,VWS V14.01,2013-03-13 18:41:00,
2013-03-13 14:46:00,47.6,21.3,29.66,WSW,256,5.0,12.0,35,0.00,,SCT050,0.00,VWS V14.01,2013-03-13 18:46:00,
2013-03-13 14:52:00,47.7,22.1,29.66,North,357,2.0,7.0,36,0.00,,SCT050,0.00,VWS V14.01,2013-03-13 18:52:00,
2013-03-13 14:57:00,48.2,21.9,29.66,WSW,244,2.0,3.0,35,0.00,,SCT055,0.00,VWS V14.01,2013-03-13 18:57:00,
2013-03-13 15:02:00,47.9,20.9,29.66,WSW,256,11.0,17.0,34,0.00,,SCT055,0.00,VWS V14.01,2013-03-13 19:02:00,
2013-03-13 15:07:00,47.6,22.0,29.66,WSW,248,2.0,6.0,36,0.00,,SCT055,0.00,VWS V14.01,2013-03-13 19:07:00,
2013-03-13 15:12:00,47.6,20.6,29.66,West,265,10.0,11.0,34,0.00,,SCT055,0.00,VWS V14.01,2013-03-13 19:12:00,
2013-03-13 15:18:00,47.3,21.0,29.66,WNW,298,10.0,11.0,35,0.00,,SCT055,0.00,VWS V14.01,2013-03-13 19:18:00,
2013-03-13 15:23:00,47.3,20.4,29.66,WNW,285,2.0,11.0,34,0.00,,SCT055,0.00,VWS V14.01,2013-03-13 19:23:00,
2013-03-13 15:28:00,47.3,20.4,29.66,SSE,164,2.0,4.0,34,0.00,,SCT055,0.00,VWS V14.01,2013-03-13 19:28:00,
2013-03-13 15:33:00,47.4,20.5,29.66,NNW,335,5.0,10.0,34,0.00,,SCT055,0.00,VWS V14.01,2013-03-13 19:33:00,
2013-03-13 15:38:00,47.7,20.7,29.66,NNW,333,6.0,13.0,34,0.00,,SCT055,0.00,VWS V14.01,2013-03-13 19:38:00,
2013-03-13 15:43:00,47.9,20.2,29.66,NW,326,1.0,8.0,33,0.00,,SCT055,0.00,VWS V14.01,2013-03-13 19:43:00,
2013-03-13 15:49:00,47.6,19.9,29.66,WSW,258,3.0,7.0,33,0.00,,SCT055,0.00,VWS V14.01,2013-03-13 19:49:00,
2013-03-13 15:54:00,47.7,20.7,29.66,NNE,14,3.0,3.0,34,0.00,,SCT055,0.00,VWS V14.01,2013-03-13 19:54:00,
2013-03-13 15:59:00,47.7,21.4,29.66,South,179,4.0,8.0,35,0.00,,SCT055,0.00,VWS V14.01,2013-03-13 19:59:00,
2013-03-13 16:04:00,47.9,20.9,29.66,West,280,3.0,13.0,34,0.00,,SCT055,0.00,VWS V14.01,2013-03-13 20:04:00,
2013-03-13 16:09:00,47.6,21.3,29.66,NNE,16,1.0,3.0,35,0.00,,SCT065,0.00,VWS V14.01,2013-03-13 20:09:00,
2013-03-13 16:15:00,47.1,19.5,29.66,NW,315,0.0,6.0,33,0.00,,SCT065,0.00,VWS V14.01,2013-03-13 20:15:00,
2013-03-13 16:20:00,46.7,21.2,29.67,NNE,25,2.0,2.0,36,0.00,,SCT065,0.00,VWS V14.01,2013-03-13 20:20:00,
2013-03-13 16:25:00,46.1,20.0,29.67,NW,323,6.0,11.0,35,0.00,,SCT065,0.00,VWS V14.01,2013-03-13 20:25:00,
2013-03-13 16:30:00,46.0,20.6,29.67,NW,306,2.0,11.0,36,0.00,,SCT065,0.00,VWS V14.01,2013-03-13 20:30:00,
2013-03-13 16:35:00,46.1,21.3,29.67,SSE,155,1.0,2.0,37,0.00,,SCT065,0.00,VWS V14.01,2013-03-13 20:35:00,
2013-03-13 16:40:00,46.4,19.6,29.67,WNW,289,2.0,7.0,34,0.00,,SCT065,0.00,VWS V14.01,2013-03-13 20:40:00,
2013-03-13 16:45:00,46.5,19.7,29.67,West,281,7.0,8.0,34,0.00,,SCT065,0.00,VWS V14.01,2013-03-13 20:45:00,
2013-03-13 16:51:00,46.7,19.8,29.67,West,267,3.0,10.0,34,0.00,,SCT065,0.00,VWS V14.01,2013-03-13 20:51:00,
2013-03-13 16:56:00,46.8,21.9,29.67,West,280,5.0,6.0,37,0.00,,SCT065,0.00,VWS V14.01,2013-03-13 20:56:00,
2013-03-13 17:01:00,46.7,20.5,29.67,NNW,336,0.0,13.0,35,0.00,,SCT065,0.00,VWS V14.01,2013-03-13 21:01:00,
2013-03-13 17:06:00,46.7,22.5,29.67,NW,322,4.0,5.0,38,0.00,,SCT065,0.00,VWS V14.01,2013-03-13 21:06:00,
2013-03-13 17:11:00,46.4,22.2,29.67,WNW,301,3.0,5.0,38,0.00,,SCT065,0.00,VWS V14.01,2013-03-13 21:11:00,
2013-03-13 17:16:00,46.0,20.6,29.67,North,352,0.0,8.0,36,0.00,,SCT065,0.00,VWS V14.01,2013-03-13 21:16:00,
2013-03-13 17:21:00,45.5,20.1,29.67,West,264,0.0,5.0,36,0.00,,SCT065,0.00,VWS V14.01,2013-03-13 21:21:00,
2013-03-13 17:26:00,45.4,20.7,29.67,WSW,243,6.0,6.0,37,0.00,,SCT065,0.00,VWS V14.01,2013-03-13 21:26:00,
2013-03-13 17:32:00,44.9,19.6,29.67,NNW,343,0.0,5.0,36,0.00,,SCT065,0.00,VWS V14.01,2013-03-13 21:32:00,
2013-03-13 17:37:00,44.8,18.8,29.67,NW,326,1.0,7.0,35,0.00,,SCT065,0.00,VWS V14.01,2013-03-13 21:37:00,
2013-03-13 17:43:00,44.6,19.3,29.67,North,0,2.0,3.0,36,0.00,,SCT065,0.00,VWS V14.01,2013-03-13 21:43:00,
2013-03-13 17:48:00,44.5,19.2,29.67,NW,326,0.0,3.0,36,0.00,,SCT065,0.00,VWS V14.01,2013-03-13 21:48:00,
2013-03-13 17:53:00,44.3,19.7,29.67,North,359,4.0,8.0,37,0.00,,SCT065,0.00,VWS V14.01,2013-03-13 21:53:00,
2013-03-13 17:58:00,44.2,19.0,29.67,West,281,1.0,10.0,36,0.00,,SCT065,0.00,VWS V14.01,2013-03-13 21:58:00,
2013-03-13 18:04:00,44.2,19.6,29.67,West,270,2.0,2.0,37,0.00,,SCT065,0.00,VWS V14.01,2013-03-13 22:04:00,
2013-03-13 18:09:00,44.1,18.9,29.67,SW,215,2.0,10.0,36,0.00,,FEW065,0.00,VWS V14.01,2013-03-13 22:09:00,
2013-03-13 18:14:00,43.9,18.7,29.67,NW,313,1.0,5.0,36,0.00,,FEW065,0.00,VWS V14.01,2013-03-13 22:14:00,
2013-03-13 18:19:00,43.9,18.7,29.68,WNW,285,0.0,7.0,36,0.00,,FEW065,0.00,VWS V14.01,2013-03-13 22:19:00,
2013-03-13 18:25:00,43.8,19.2,29.68,WSW,258,3.0,6.0,37,0.00,,FEW065,0.00,VWS V14.01,2013-03-13 22:25:00,
2013-03-13 18:30:00,43.6,19.1,29.68,ESE,107,0.0,6.0,37,0.00,,FEW065,0.00,VWS V14.01,2013-03-13 22:30:00,
2013-03-13 18:35:00,43.5,19.6,29.68,West,271,4.0,6.0,38,0.00,,FEW065,0.00,VWS V14.01,2013-03-13 22:35:00,
2013-03-13 18:41:00,43.3,19.4,29.68,West,272,0.0,0.0,38,0.00,,FEW065,0.00,VWS V14.01,2013-03-13 22:41:00,
2013-03-13 18:46:00,43.2,19.9,29.68,WNW,296,1.0,2.0,39,0.00,,FEW065,0.00,VWS V14.01,2013-03-13 22:46:00,
2013-03-13 18:51:00,43.1,20.4,29.68,NW,320,0.0,0.0,40,0.00,,FEW065,0.00,VWS V14.01,2013-03-13 22:51:00,
2013-03-13 18:57:00,42.8,20.8,29.68,NNW,340,4.0,5.0,41,0.00,,CLR,0.00,VWS V14.01,2013-03-13 22:57:00,
2013-03-13 19:02:00,42.5,21.0,29.68,NNW,342,2.0,2.0,42,0.00,,CLR,0.00,VWS V14.01,2013-03-13 23:02:00,
2013-03-13 19:07:00,42.2,20.2,29.68,NNW,342,0.0,3.0,41,0.00,,CLR,0.00,VWS V14.01,2013-03-13 23:07:00,
2013-03-13 19:12:00,41.8,21.0,29.68,WNW,298,0.0,2.0,43,0.00,,CLR,0.00,VWS V14.01,2013-03-13 23:12:00,
2013-03-13 19:17:00,41.5,20.7,29.69,WNW,288,0.0,0.0,43,0.00,,CLR,0.00,VWS V14.01,2013-03-13 23:17:00,
2013-03-13 19:23:00,41.2,21.0,29.69,WNW,288,0.0,0.0,44,0.00,,CLR,0.00,VWS V14.01,2013-03-13 23:23:00,
2013-03-13 19:28:00,40.9,22.2,29.69,WNW,288,0.0,0.0,47,0.00,,CLR,0.00,VWS V14.01,2013-03-13 23:28:00,
2013-03-13 19:33:00,40.5,21.9,29.70,WNW,288,0.0,0.0,47,0.00,,CLR,0.00,VWS V14.01,2013-03-13 23:33:00,
2013-03-13 19:38:00,39.9,21.8,29.70,WNW,288,0.0,1.0,48,0.00,,CLR,0.00,VWS V14.01,2013-03-13 23:38:00,
2013-03-13 19:43:00,39.2,21.7,29.70,WNW,288,0.0,1.0,49,0.00,,CLR,0.00,VWS V14.01,2013-03-13 23:43:00,
2013-03-13 19:49:00,38.6,21.6,29.70,WNW,288,0.0,0.0,50,0.00,,CLR,0.00,VWS V14.01,2013-03-13 23:49:00,
2013-03-13 19:54:00,38.0,21.5,29.70,WNW,288,0.0,2.0,51,0.00,,CLR,0.00,VWS V14.01,2013-03-13 23:54:00,
2013-03-13 19:59:00,37.6,21.6,29.70,WNW,288,2.0,2.0,52,0.00,,CLR,0.00,VWS V14.01,2013-03-13 23:59:00,
2013-03-13 20:04:00,37.2,21.2,29.70,WNW,288,0.0,1.0,52,0.00,,CLR,0.00,VWS V14.01,2013-03-14 00:04:00,
2013-03-13 20:09:00,36.8,21.7,29.70,WNW,288,0.0,2.0,54,0.00,,SCT085,0.00,VWS V14.01,2013-03-14 00:09:00,
2013-03-13 20:14:00,36.5,21.5,29.70,WNW,288,0.0,0.0,54,0.00,,SCT085,0.00,VWS V14.01,2013-03-14 00:14:00,
2013-03-13 20:20:00,36.2,21.6,29.71,WNW,288,0.0,0.0,55,0.00,,SCT085,0.00,VWS V14.01,2013-03-14 00:20:00,
2013-03-13 20:25:00,35.9,21.8,29.71,WNW,288,0.0,0.0,56,0.00,,SCT085,0.00,VWS V14.01,2013-03-14 00:25:00,
2013-03-13 20:30:00,35.8,21.6,29.71,WNW,288,0.0,0.0,56,0.00,,SCT085,0.00,VWS V14.01,2013-03-14 00:30:00,
2013-03-13 20:35:00,35.5,21.4,29.71,WNW,288,0.0,0.0,56,0.00,,SCT085,0.00,VWS V14.01,2013-03-14 00:35:00,
2013-03-13 20:40:00,35.3,21.6,29.71,WNW,288,0.0,0.0,57,0.00,,SCT085,0.00,VWS V14.01,2013-03-14 00:40:00,
2013-03-13 20:45:00,35.0,21.7,29.71,WNW,288,0.0,0.0,58,0.00,,SCT085,0.00,VWS V14.01,2013-03-14 00:45:00,
2013-03-13 20:51:00,34.9,22.0,29.71,WNW,288,0.0,0.0,59,0.00,,SCT085,0.00,VWS V14.01,2013-03-14 00:51:00,
2013-03-13 20:56:00,34.6,22.2,29.71,WNW,288,0.0,0.0,60,0.00,,OVC090,0.00,VWS V14.01,2013-03-14 00:56:00,
2013-03-13 21:01:00,34.4,22.7,29.71,WNW,288,0.0,0.0,62,0.00,,OVC090,0.00,VWS V14.01,2013-03-14 01:01:00,
2013-03-13 21:06:00,34.3,22.6,29.71,WNW,288,0.0,0.0,62,0.00,,OVC090,0.00,VWS V14.01,2013-03-14 01:06:00,
2013-03-13 21:12:00,34.1,22.8,29.71,WNW,288,0.0,0.0,63,0.00,,OVC090,0.00,VWS V14.01,2013-03-14 01:12:00,
2013-03-13 21:17:00,34.0,22.7,29.71,WNW,288,0.0,0.0,63,0.00,,OVC090,0.00,VWS V14.01,2013-03-14 01:17:00,
2013-03-13 21:22:00,33.8,22.9,29.71,WNW,288,0.0,0.0,64,0.00,,OVC090,0.00,VWS V14.01,2013-03-14 01:22:00,
2013-03-13 21:27:00,33.7,22.8,29.71,WNW,288,0.0,0.0,64,0.00,,OVC090,0.00,VWS V14.01,2013-03-14 01:27:00,
2013-03-13 21:33:00,33.7,23.2,29.71,WNW,288,0.0,1.0,65,0.00,,OVC090,0.00,VWS V14.01,2013-03-14 01:33:00,
2013-03-13 21:38:00,33.5,23.4,29.71,WNW,288,0.0,0.0,66,0.00,,OVC090,0.00,VWS V14.01,2013-03-14 01:38:00,
2013-03-13 21:43:00,33.5,23.4,29.71,WNW,288,0.0,0.0,66,0.00,,OVC090,0.00,VWS V14.01,2013-03-14 01:43:00,
2013-03-13 21:48:00,33.4,23.6,29.72,WNW,288,0.0,0.0,67,0.00,,OVC090,0.00,VWS V14.01,2013-03-14 01:48:00,
2013-03-13 21:53:00,33.4,23.6,29.72,WNW,288,0.0,0.0,67,0.00,,OVC090,0.00,VWS V14.01,2013-03-14 01:53:00,
2013-03-13 21:58:00,33.4,24.0,29.72,WNW,288,0.0,0.0,68,0.00,,OVC090,0.00,VWS V14.01,2013-03-14 01:58:00,
2013-03-13 22:03:00,33.4,24.0,29.72,WNW,288,0.0,0.0,68,0.00,,OVC090,0.00,VWS V14.01,2013-03-14 02:03:00,
2013-03-13 22:09:00,33.4,24.3,29.72,WNW,288,0.0,0.0,69,0.00,,OVC070,0.00,VWS V14.01,2013-03-14 02:09:00,
2013-03-13 22:14:00,33.4,24.3,29.72,WNW,288,0.0,0.0,69,0.00,,OVC070,0.00,VWS V14.01,2013-03-14 02:14:00,
2013-03-13 22:19:00,33.4,24.3,29.72,WNW,288,0.0,0.0,69,0.00,,OVC070,0.00,VWS V14.01,2013-03-14 02:19:00,
2013-03-13 22:24:00,33.5,24.4,29.72,WNW,288,0.0,1.0,69,0.00,,OVC070,0.00,VWS V14.01,2013-03-14 02:24:00,
2013-03-13 22:29:00,33.5,24.8,29.72,WNW,288,1.0,2.0,70,0.00,,OVC070,0.00,VWS V14.01,2013-03-14 02:29:00,
2013-03-13 22:35:00,33.7,25.0,29.72,WNW,288,0.0,0.0,70,0.00,,OVC070,0.00,VWS V14.01,2013-03-14 02:35:00,
2013-03-13 22:40:00,33.7,25.0,29.72,WNW,288,0.0,0.0,70,0.00,,OVC070,0.00,VWS V14.01,2013-03-14 02:40:00,
2013-03-13 22:45:00,33.7,25.0,29.72,South,188,1.0,3.0,70,0.00,,OVC070,0.00,VWS V14.01,2013-03-14 02:45:00,
2013-03-13 22:50:00,33.8,25.1,29.72,NNW,328,0.0,0.0,70,0.00,,OVC070,0.00,VWS V14.01,2013-03-14 02:50:00,
2013-03-13 22:55:00,33.8,25.1,29.72,WSW,247,3.0,6.0,70,0.00,,OVC070,0.00,VWS V14.01,2013-03-14 02:55:00,
2013-03-13 22:59:00,36.9,25.1,29.72,WSW,256,1.0,7.0,62,0.00,,OVC070,0.00,VWS V14.01,2013-03-14 02:59:00,
2013-03-13 23:00:00,36.9,25.1,29.72,WNW,301,0.0,6.0,62,0.00,,OVC070,0.00,VWS V14.01,2013-03-14 03:00:00,
2013-03-13 23:01:00,34.1,25.0,29.72,West,263,0.0,7.0,69,0.00,,OVC070,0.00,VWS V14.01,2013-03-14 03:01:00,
2013-03-13 23:02:00,36.9,25.1,29.72,WNW,301,0.0,1.0,62,0.00,,OVC070,0.00,VWS V14.01,2013-03-14 03:02:00,
2013-03-13 23:03:00,36.9,25.1,29.72,WNW,301,3.0,3.0,62,0.00,,OVC070,0.00,VWS V14.01,2013-03-14 03:03:00,
2013-03-13 23:04:00,36.9,25.1,29.72,WNW,301,0.0,3.0,62,0.00,,OVC070,0.00,VWS V14.01,2013-03-14 03:04:00,
2013-03-13 23:05:00,36.9,25.1,29.72,WNW,301,0.0,3.0,62,0.00,,OVC080,0.00,VWS V14.01,2013-03-14 03:05:00,
2013-03-13 23:06:00,34.6,24.8,29.72,WSW,250,0.0,2.0,67,0.00,,OVC070,0.00,VWS V14.01,2013-03-14 03:06:00,
2013-03-13 23:07:00,36.9,25.5,29.72,North,356,2.0,2.0,63,0.00,,OVC080,0.00,VWS V14.01,2013-03-14 03:07:00,
2013-03-13 23:08:00,36.9,25.5,29.72,South,178,0.0,6.0,63,0.00,,OVC080,0.00,VWS V14.01,2013-03-14 03:08:00,
2013-03-13 23:09:00,36.8,25.4,29.72,South,178,0.0,6.0,63,0.00,,OVC080,0.00,VWS V14.01,2013-03-14 03:09:00,
2013-03-13 23:10:00,36.8,25.4,29.72,South,178,0.0,1.0,63,0.00,,OVC080,0.00,VWS V14.01,2013-03-14 03:10:00,
2013-03-13 23:11:00,35.0,24.4,29.72,SW,220,1.0,3.0,65,0.00,,OVC070,0.00,VWS V14.01,2013-03-14 03:11:00,
2013-03-13 23:12:00,36.8,25.4,29.72,West,268,2.0,5.0,63,0.00,,OVC080,0.00,VWS V14.01,2013-03-14 03:12:00,
2013-03-13 23:13:00,36.8,25.4,29.72,West,280,2.0,5.0,63,0.00,,OVC080,0.00,VWS V14.01,2013-03-14 03:13:00,
2013-03-13 23:14:00,36.8,25.4,29.72,West,277,3.0,4.0,63,0.00,,OVC080,0.00,VWS V14.01,2013-03-14 03:14:00,
2013-03-13 23:15:00,36.8,25.4,29.72,WSW,247,1.0,3.0,63,0.00,,OVC080,0.00,VWS V14.01,2013-03-14 03:15:00,
2013-03-13 23:16:00,35.5,24.5,29.72,WSW,247,2.0,6.0,64,0.00,,OVC070,0.00,VWS V14.01,2013-03-14 03:16:00,
2013-03-13 23:17:00,36.8,25.4,29.72,NW,318,3.0,4.0,63,0.00,,OVC080,0.00,VWS V14.01,2013-03-14 03:17:00,
2013-03-13 23:18:00,36.6,25.2,29.72,North,0,0.0,4.0,63,0.00,,OVC080,0.00,VWS V14.01,2013-03-14 03:18:00,
2013-03-13 23:19:00,36.6,25.2,29.72,West,280,2.0,4.0,63,0.00,,OVC080,0.00,VWS V14.01,2013-03-14 03:19:00,
2013-03-13 23:20:00,36.6,25.2,29.72,West,275,1.0,5.0,63,0.00,,OVC080,0.00,VWS V14.01,2013-03-14 03:20:00,
2013-03-13 23:21:00,36.6,25.2,29.72,West,275,1.0,5.0,63,0.00,,OVC080,0.00,VWS V14.01,2013-03-14 03:21:00,
2013-03-13 23:22:00,36.0,24.3,29.72,North,353,2.0,2.0,62,0.00,,OVC070,0.00,VWS V14.01,2013-03-14 03:22:00,
2013-03-13 23:23:00,36.6,25.2,29.72,West,275,0.0,3.0,63,0.00,,OVC080,0.00,VWS V14.01,2013-03-14 03:23:00,
2013-03-13 23:24:00,36.6,25.2,29.72,West,275,0.0,3.0,63,0.00,,OVC080,0.00,VWS V14.01,2013-03-14 03:24:00,
2013-03-13 23:25:00,36.6,25.2,29.72,WNW,301,2.0,5.0,63,0.00,,OVC080,0.00,VWS V14.01,2013-03-14 03:25:00,
2013-03-13 23:26:00,36.6,25.2,29.72,WSW,251,3.0,6.0,63,0.00,,OVC080,0.00,VWS V14.01,2013-03-14 03:26:00,
2013-03-13 23:27:00,36.5,24.7,29.72,WNW,295,6.0,7.0,62,0.00,,OVC070,0.00,VWS V14.01,2013-03-14 03:27:00,
2013-03-13 23:28:00,36.5,25.1,29.72,NW,305,3.0,6.0,63,0.00,,OVC080,0.00,VWS V14.01,2013-03-14 03:28:00,
2013-03-13 23:29:00,36.5,25.1,29.72,WSW,258,0.0,3.0,63,0.00,,OVC080,0.00,VWS V14.01,2013-03-14 03:29:00,
2013-03-13 23:30:00,36.5,25.1,29.72,WNW,294,3.0,3.0,63,0.00,,OVC080,0.00,VWS V14.01,2013-03-14 03:30:00,
2013-03-13 23:31:00,36.5,25.1,29.72,WNW,301,2.0,3.0,63,0.00,,OVC080,0.00,VWS V14.01,2013-03-14 03:31:00,
2013-03-13 23:32:00,36.9,25.1,29.72,WNW,291,8.0,10.0,62,0.00,,OVC070,0.00,VWS V14.01,2013-03-14 03:32:00,
2013-03-13 23:33:00,36.5,25.1,29.72,NNE,20,3.0,5.0,63,0.00,,OVC080,0.00,VWS V14.01,2013-03-14 03:33:00,
2013-03-13 23:34:00,36.5,25.1,29.72,WNW,288,2.0,5.0,63,0.00,,OVC080,0.00,VWS V14.01,2013-03-14 03:34:00,
2013-03-13 23:36:00,36.5,25.1,29.72,NW,304,0.0,5.0,63,0.00,,OVC080,0.00,VWS V14.01,2013-03-14 03:36:00,
2013-03-13 23:37:00,37.0,25.2,29.72,South,191,4.0,8.0,62,0.00,,OVC070,0.00,VWS V14.01,2013-03-14 03:37:00,
2013-03-13 23:38:00,36.3,24.9,29.72,NW,318,1.0,6.0,63,0.00,,OVC080,0.00,VWS V14.01,2013-03-14 03:38:00,
2013-03-13 23:43:00,37.0,25.2,29.72,SW,229,0.0,0.0,62,0.00,,OVC070,0.00,VWS V14.01,2013-03-14 03:43:00,
2013-03-13 23:48:00,37.0,25.6,29.72,West,271,3.0,3.0,63,0.00,,OVC070,0.00,VWS V14.01,2013-03-14 03:48:00,
2013-03-13 23:53:00,37.0,25.6,29.72,WNW,302,2.0,7.0,63,0.00,,OVC070,0.00,VWS V14.01,2013-03-14 03:53:00,
2013-03-13 23:58:00,36.9,25.5,29.72,NNW,347,3.0,3.0,63,0.00,,OVC070,0.00,VWS V14.01,2013-03-14 03:58:00,